Time;durP1;ratioP1;P1;durP2;ratioP2;P2;SDS_P1;SDS_P2;PMS_P1;PMS_P2;Temp;Humidity;BMP_temperature;BMP_pressure;BME280_temperature;BME280_humidity;BME280_pressure;Samples;Min_cycle;Max_cycle;Signal;HPM_P1;HPM_P2
2022/04/15 00:00:44;;;;;;;;;;;;;;;;;;5116374;28;19907;-43
2022/04/15 00:03:11;;;;;;;;;;;;;;;;;;5116155;28;20354;-45
2022/04/15 00:05:45;;;;;;;;;;;;;;;;;;5116401;28;19912;-43
2022/04/15 00:08:10;;;;;;;;;;;;;;;;;;5116428;28;19930;-43
2022/04/15 00:10:35;;;;;;;;;;;;;;;;;;5116100;28;20333;-43
2022/04/15 00:13:01;;;;;;;;;;;;;;;;;;5116122;28;19915;-43
2022/04/15 00:15:27;;;;;;;;;;;;;;;;;;5116321;28;19912;-43
2022/04/15 00:17:52;;;;;;;;;;;;;;;;;;5116696;28;20386;-44
2022/04/15 00:20:17;;;;;;;;;;;;;;;;;;5116334;28;19993;-43
2022/04/15 00:22:42;;;;;;;;;;;;;;;;;;5116087;28;19992;-44
2022/04/15 00:25:09;;;;;;;;;;;;;;;;;;5116149;28;19907;-44
2022/04/15 00:27:34;;;;;;;;;;;;;;;;;;5116071;28;20003;-44
2022/04/15 00:29:59;;;;;;;;;;;;;;;;;;5115881;28;19994;-43
2022/04/15 00:32:25;;;;;;;;;;;;;;;;;;5115773;28;19908;-43
2022/04/15 00:34:51;;;;;;;;;;;;;;;;;;5115994;28;19915;-43
2022/04/15 00:37:17;;;;;;;;;;;;;;;;;;5115666;28;19920;-44
2022/04/15 00:39:45;;;;;;;;;;;;;;;;;;5116098;28;20427;-43
2022/04/15 00:42:10;;;;;;;;;;;;;;;;;;5115758;28;20366;-43
2022/04/15 00:44:36;;;;;;;;;;;;;;;;;;5116158;28;19908;-44
2022/04/15 00:47:01;;;;;;;;;;;;;;;;;;5115573;28;19915;-43
2022/04/15 00:49:26;;;;;;;;;;;;;;;;;;5116131;28;19912;-44
2022/04/15 00:51:51;;;;;;;;;;;;;;;;;;5116038;28;20363;-44
2022/04/15 00:54:16;;;;;;;;;;;;;;;;;;5115973;28;19907;-43
2022/04/15 00:56:41;;;;;;;;;;;;;;;;;;5116057;28;19904;-44
2022/04/15 00:59:08;;;;;;;;;;;;;;;;;;5115846;28;19908;-43
2022/04/15 01:01:33;;;;;;;;;;;;;;;;;;5115935;28;19918;-43
2022/04/15 01:03:58;;;;;;;;;;;;;;;;;;5116180;28;20347;-43
2022/04/15 01:06:23;;;;;;;;;;;;;;;;;;5116091;28;19915;-43
2022/04/15 01:08:48;;;;;;;;;;;;;;;;;;5115846;28;20276;-43
2022/04/15 01:11:13;;;;;;;;;;;;;;;;;;5116156;28;20299;-44
2022/04/15 01:13:40;;;;;;;;;;;;;;;;;;5115764;28;19907;-43
2022/04/15 01:16:06;;;;;;;;;;;;;;;;;;5116057;28;19912;-43
2022/04/15 01:18:31;;;;;;;;;;;;;;;;;;5101371;28;20282;-44
2022/04/15 01:20:56;;;;;;;;;;;;;;;;;;5095692;28;19908;-44
2022/04/15 01:23:21;;;;;;;;;;;;;;;;;;5098626;28;19966;-44
2022/04/15 01:25:46;;;;;;;;;;;;;;;;;;5098850;28;19915;-43
2022/04/15 01:28:16;;;;;;;;;;;;;;;;;;5099218;28;19908;-46
2022/04/15 01:30:41;;;;;;;;;;;;;;;;;;5099428;28;19950;-44
2022/04/15 01:33:06;;;;;;;;;;;;;;;;;;5098899;28;19912;-44
2022/04/15 01:35:31;;;;;;;;;;;;;;;;;;5098726;28;19916;-44
2022/04/15 01:37:59;;;;;;;;;;;;;;;;;;5098818;28;19908;-43
2022/04/15 01:40:24;;;;;;;;;;;;;;;;;;5098957;28;19915;-45
2022/04/15 01:42:50;;;;;;;;;;;;;;;;;;5098598;28;20345;-44
2022/04/15 01:45:15;;;;;;;;;;;;;;;;;;5098990;28;19908;-43
2022/04/15 01:47:40;;;;;;;;;;;;;;;;;;5112943;28;20285;-43
2022/04/15 01:50:05;;;;;;;;;;;;;;;;;;5118181;28;20424;-44
2022/04/15 01:52:30;;;;;;;;;;;;;;;;;;5119314;28;19914;-43
2022/04/15 01:54:55;;;;;;;;;;;;;;;;;;5119144;28;19915;-44
2022/04/15 01:57:20;;;;;;;;;;;;;;;;;;5119209;28;20016;-43
2022/04/15 01:59:46;;;;;;;;;;;;;;;;;;5100377;28;19912;-44
2022/04/15 02:02:11;;;;;;;;;;;;;;;;;;5119072;28;19915;-44
2022/04/15 02:04:36;;;;;;;;;;;;;;;;;;5118353;28;19912;-43
2022/04/15 02:07:01;;;;;;;;;;;;;;;;;;5118625;28;19911;-44
2022/04/15 02:09:26;;;;;;;;;;;;;;;;;;5118755;28;19912;-43
2022/04/15 02:11:51;;;;;;;;;;;;;;;;;;5118608;28;19965;-43
2022/04/15 02:14:19;;;;;;;;;;;;;;;;;;5118632;28;19911;-44
2022/04/15 02:16:44;;;;;;;;;;;;;;;;;;5118656;28;19931;-43
2022/04/15 02:19:10;;;;;;;;;;;;;;;;;;5118367;28;19908;-44
2022/04/15 02:21:35;;;;;;;;;;;;;;;;;;5118192;28;20282;-43
2022/04/15 02:24:00;;;;;;;;;;;;;;;;;;5118228;28;20378;-44
2022/04/15 02:26:25;;;;;;;;;;;;;;;;;;5118227;28;19911;-43
2022/04/15 02:28:50;;;;;;;;;;;;;;;;;;5117919;28;19908;-44
2022/04/15 02:31:15;;;;;;;;;;;;;;;;;;5117516;28;19908;-44
2022/04/15 02:33:40;;;;;;;;;;;;;;;;;;5117890;28;19908;-43
2022/04/15 02:36:06;;;;;;;;;;;;;;;;;;5132594;27;19973;-43
2022/04/15 02:38:31;;;;;;;;;;;;;;;;;;5138493;27;19907;-43
2022/04/15 02:40:56;;;;;;;;;;;;;;;;;;5119833;27;19935;-43
2022/04/15 02:43:25;;;;;;;;;;;;;;;;;;5138864;27;20421;-44
2022/04/15 02:45:50;;;;;;;;;;;;;;;;;;5138354;27;20362;-43
2022/04/15 02:48:15;;;;;;;;;;;;;;;;;;5138847;27;19928;-44
2022/04/15 02:50:40;;;;;;;;;;;;;;;;;;5138118;27;19951;-43
2022/04/15 02:53:05;;;;;;;;;;;;;;;;;;5138021;27;19911;-44
2022/04/15 02:55:30;;;;;;;;;;;;;;;;;;5138003;27;19911;-43
2022/04/15 02:57:55;;;;;;;;;;;;;;;;;;5104749;27;19927;-44
2022/04/15 03:00:21;;;;;;;;;;;;;;;;;;5096812;28;19912;-44
2022/04/15 03:02:46;;;;;;;;;;;;;;;;;;5097208;28;19920;-43
2022/04/15 03:05:11;;;;;;;;;;;;;;;;;;5097070;28;19909;-43
2022/04/15 03:07:36;;;;;;;;;;;;;;;;;;5097133;28;20283;-44
2022/04/15 03:10:01;;;;;;;;;;;;;;;;;;5104115;28;19912;-44
2022/04/15 03:12:26;;;;;;;;;;;;;;;;;;5117340;28;19915;-44
2022/04/15 03:14:51;;;;;;;;;;;;;;;;;;5117441;28;19908;-44
2022/04/15 03:17:16;;;;;;;;;;;;;;;;;;5117640;28;19908;-44
2022/04/15 03:19:41;;;;;;;;;;;;;;;;;;5117680;28;19915;-44
2022/04/15 03:22:07;;;;;;;;;;;;;;;;;;5116857;28;19919;-44
2022/04/15 03:24:32;;;;;;;;;;;;;;;;;;5117066;28;19919;-44
2022/04/15 03:26:57;;;;;;;;;;;;;;;;;;5117079;28;19915;-44
2022/04/15 03:29:22;;;;;;;;;;;;;;;;;;5116987;28;19908;-43
2022/04/15 03:31:47;;;;;;;;;;;;;;;;;;5117306;28;19912;-44
2022/04/15 03:34:13;;;;;;;;;;;;;;;;;;5116658;28;19907;-43
2022/04/15 03:36:39;;;;;;;;;;;;;;;;;;5115861;28;20354;-44
2022/04/15 03:39:04;;;;;;;;;;;;;;;;;;5116718;28;19908;-44
2022/04/15 03:41:29;;;;;;;;;;;;;;;;;;5116891;28;19908;-44
2022/04/15 03:43:54;;;;;;;;;;;;;;;;;;5116415;28;20369;-44
2022/04/15 03:46:19;;;;;;;;;;;;;;;;;;5116710;28;19908;-44
2022/04/15 03:48:45;;;;;;;;;;;;;;;;;;5117046;28;19908;-43
2022/04/15 03:51:11;;;;;;;;;;;;;;;;;;5116870;28;19911;-44
2022/04/15 03:53:36;;;;;;;;;;;;;;;;;;5098514;28;19915;-45
2022/04/15 03:56:01;;;;;;;;;;;;;;;;;;5116169;28;19908;-43
2022/04/15 03:58:26;;;;;;;;;;;;;;;;;;5116304;28;19912;-44
2022/04/15 04:00:52;;;;;;;;;;;;;;;;;;5116686;28;20020;-43
2022/04/15 04:03:18;;;;;;;;;;;;;;;;;;5116640;28;19912;-43
2022/04/15 04:05:43;;;;;;;;;;;;;;;;;;5116141;28;19918;-43
2022/04/15 04:08:08;;;;;;;;;;;;;;;;;;5117197;28;19912;-43
2022/04/15 04:10:33;;;;;;;;;;;;;;;;;;5116798;28;20350;-44
2022/04/15 04:12:59;;;;;;;;;;;;;;;;;;5116483;28;19926;-44
2022/04/15 04:15:24;;;;;;;;;;;;;;;;;;5116926;28;19978;-44
2022/04/15 04:17:49;;;;;;;;;;;;;;;;;;5116685;28;19911;-43
2022/04/15 04:20:16;;;;;;;;;;;;;;;;;;5116425;28;19908;-44
2022/04/15 04:22:41;;;;;;;;;;;;;;;;;;5116187;28;19918;-44
2022/04/15 04:25:08;;;;;;;;;;;;;;;;;;5109203;28;20006;-43
2022/04/15 04:27:34;;;;;;;;;;;;;;;;;;5095605;28;20290;-43
2022/04/15 04:29:59;;;;;;;;;;;;;;;;;;5095909;28;19905;-44
2022/04/15 04:32:24;;;;;;;;;;;;;;;;;;5096118;28;19904;-44
2022/04/15 04:34:49;;;;;;;;;;;;;;;;;;5095753;28;19909;-43
2022/04/15 04:37:14;;;;;;;;;;;;;;;;;;5095563;28;20409;-45
2022/04/15 04:39:39;;;;;;;;;;;;;;;;;;5095597;28;20370;-44
2022/04/15 04:42:05;;;;;;;;;;;;;;;;;;5095598;28;20432;-45
2022/04/15 04:44:30;;;;;;;;;;;;;;;;;;5095519;28;19908;-44
2022/04/15 04:46:55;;;;;;;;;;;;;;;;;;5095602;28;19908;-43
2022/04/15 04:49:21;;;;;;;;;;;;;;;;;;5096030;28;19912;-44
2022/04/15 04:51:46;;;;;;;;;;;;;;;;;;5095204;28;20345;-43
2022/04/15 04:54:11;;;;;;;;;;;;;;;;;;5108316;28;19965;-43
2022/04/15 04:56:36;;;;;;;;;;;;;;;;;;5119336;28;19961;-43
2022/04/15 04:59:01;;;;;;;;;;;;;;;;;;5119792;28;19933;-44
2022/04/15 05:01:27;;;;;;;;;;;;;;;;;;5119325;28;19912;-43
2022/04/15 05:03:52;;;;;;;;;;;;;;;;;;5120067;28;19930;-44
2022/04/15 05:06:17;;;;;;;;;;;;;;;;;;5119452;28;19908;-44
2022/04/15 05:08:42;;;;;;;;;;;;;;;;;;5119796;28;19945;-43
2022/04/15 05:11:07;;;;;;;;;;;;;;;;;;5119209;28;19911;-43
2022/04/15 05:13:32;;;;;;;;;;;;;;;;;;5119150;28;19907;-44
2022/04/15 05:15:57;;;;;;;;;;;;;;;;;;5119515;28;19975;-45
2022/04/15 05:18:22;;;;;;;;;;;;;;;;;;5119478;28;19908;-44
2022/04/15 05:20:48;;;;;;;;;;;;;;;;;;5119003;28;19912;-44
2022/04/15 05:23:13;;;;;;;;;;;;;;;;;;5118891;28;19990;-46
2022/04/15 05:25:38;;;;;;;;;;;;;;;;;;5109673;28;19981;-44
2022/04/15 05:28:03;;;;;;;;;;;;;;;;;;5115952;28;19910;-45
2022/04/15 05:30:28;;;;;;;;;;;;;;;;;;5118128;28;19912;-45
2022/04/15 05:32:53;;;;;;;;;;;;;;;;;;5119476;28;20247;-47
2022/04/15 05:35:18;;;;;;;;;;;;;;;;;;5103435;28;19908;-46
2022/04/15 05:37:43;;;;;;;;;;;;;;;;;;5084227;28;19922;-48
2022/04/15 05:40:08;;;;;;;;;;;;;;;;;;5108238;28;19912;-47
2022/04/15 05:42:34;;;;;;;;;;;;;;;;;;5111021;28;20278;-46
2022/04/15 05:44:59;;;;;;;;;;;;;;;;;;5099133;28;19948;-46
2022/04/15 05:47:24;;;;;;;;;;;;;;;;;;5108663;28;19965;-46
2022/04/15 05:49:49;;;;;;;;;;;;;;;;;;5110228;28;19922;-46
2022/04/15 05:52:14;;;;;;;;;;;;;;;;;;5115234;27;19915;-46
2022/04/15 05:54:39;;;;;;;;;;;;;;;;;;5108847;28;19949;-46
2022/04/15 05:57:04;;;;;;;;;;;;;;;;;;5110025;28;20373;-45
2022/04/15 05:59:29;;;;;;;;;;;;;;;;;;5099199;28;19912;-47
2022/04/15 06:01:55;;;;;;;;;;;;;;;;;;5100921;28;19966;-45
2022/04/15 06:04:20;;;;;;;;;;;;;;;;;;5098907;28;19911;-45
2022/04/15 06:06:46;;;;;;;;;;;;;;;;;;5108095;28;19920;-46
2022/04/15 06:09:11;;;;;;;;;;;;;;;;;;5100423;28;19992;-46
2022/04/15 06:11:37;;;;;;;;;;;;;;;;;;5076247;28;19920;-45
2022/04/15 06:14:04;;;;;;;;;;;;;;;;;;5060856;28;19919;-45
2022/04/15 06:16:32;;;;;;;;;;;;;;;;;;5058435;28;20056;-44
2022/04/15 06:18:57;;;;;;;;;;;;;;;;;;4995603;28;21305;-48
2022/04/15 06:21:22;;;;;;;;;;;;;;;;;;4932051;28;21229;-46
2022/04/15 06:23:47;;;;;;;;;;;;;;;;;;4787999;28;19952;-47
2022/04/15 06:26:12;;;;;;;;;;;;;;;;;;4762616;27;22272;-45
2022/04/15 06:28:37;;;;;;;;;;;;;;;;;;4773301;27;21420;-46
2022/04/15 06:31:03;;;;;;;;;;;;;;;;;;4827190;27;19924;-47
2022/04/15 06:33:28;;;;;;;;;;;;;;;;;;4867758;28;23572;-46
2022/04/15 06:35:53;;;;;;;;;;;;;;;;;;4874342;27;28477;-46
2022/04/15 06:38:18;;;;;;;;;;;;;;;;;;4927531;27;21858;-45
2022/04/15 06:40:43;;;;;;;;;;;;;;;;;;4942894;27;21415;-47
2022/04/15 06:43:08;;;;;;;;;;;;;;;;;;4922639;27;19930;-45
2022/04/15 06:45:34;;;;;;;;;;;;;;;;;;4935757;27;19920;-47
2022/04/15 06:47:59;;;;;;;;;;;;;;;;;;4922923;27;20492;-45
2022/04/15 06:50:24;;;;;;;;;;;;;;;;;;4870388;27;21365;-48
2022/04/15 06:52:49;;;;;;;;;;;;;;;;;;4899486;27;19922;-48
2022/04/15 06:55:15;;;;;;;;;;;;;;;;;;4935105;28;25078;-47
2022/04/15 06:57:40;;;;;;;;;;;;;;;;;;4920831;28;19920;-48
2022/04/15 07:00:05;;;;;;;;;;;;;;;;;;4898786;27;21064;-47
2022/04/15 07:02:30;;;;;;;;;;;;;;;;;;4874845;28;22255;-47
2022/04/15 07:04:55;;;;;;;;;;;;;;;;;;4877007;27;19919;-47
2022/04/15 07:07:20;;;;;;;;;;;;;;;;;;4856339;27;22948;-48
2022/04/15 07:09:45;;;;;;;;;;;;;;;;;;4875056;28;30160;-46
2022/04/15 07:12:11;;;;;;;;;;;;;;;;;;4889250;27;23578;-47
2022/04/15 07:14:36;;;;;;;;;;;;;;;;;;4890067;27;19919;-47
2022/04/15 07:17:01;;;;;;;;;;;;;;;;;;4831323;28;19979;-47
2022/04/15 07:19:27;;;;;;;;;;;;;;;;;;4829798;27;19920;-47
2022/04/15 07:21:52;;;;;;;;;;;;;;;;;;4775772;27;19924;-45
2022/04/15 07:24:17;;;;;;;;;;;;;;;;;;4762128;28;19920;-47
2022/04/15 07:26:42;;;;;;;;;;;;;;;;;;4781708;27;21102;-46
2022/04/15 07:29:07;;;;;;;;;;;;;;;;;;4731833;28;24677;-47
2022/04/15 07:31:33;;;;;;;;;;;;;;;;;;4836164;27;26016;-46
2022/04/15 07:33:58;;;;;;;;;;;;;;;;;;4882320;27;20034;-45
2022/04/15 07:39:00;;;;;;;;;;;;;;;;;;4881950;27;20250;-47
2022/04/15 07:41:25;;;;;;;;;;;;;;;;;;4842804;27;30124;-44
2022/04/15 07:43:50;;;;;;;;;;;;;;;;;;4840998;27;22776;-44
2022/04/15 07:46:15;;;;;;;;;;;;;;;;;;4851512;28;19920;-47
2022/04/15 07:48:40;;;;;;;;;;;;;;;;;;4839317;28;20841;-46
2022/04/15 07:51:05;;;;;;;;;;;;;;;;;;4847081;27;22604;-48
2022/04/15 07:53:31;;;;;;;;;;;;;;;;;;4848450;27;22312;-46
2022/04/15 07:55:56;;;;;;;;;;;;;;;;;;4835479;28;19920;-48
2022/04/15 07:58:21;;;;;;;;;;;;;;;;;;4879548;28;20724;-48
2022/04/15 08:00:46;;;;;;;;;;;;;;;;;;4866316;28;20962;-47
2022/04/15 08:03:11;;;;;;;;;;;;;;;;;;4828881;27;20496;-50
2022/04/15 08:05:36;;;;;;;;;;;;;;;;;;4779377;27;20687;-46
2022/04/15 08:08:02;;;;;;;;;;;;;;;;;;4772582;27;19927;-48
2022/04/15 08:10:27;;;;;;;;;;;;;;;;;;4693415;27;19923;-47
2022/04/15 08:12:52;;;;;;;;;;;;;;;;;;4682762;28;23670;-46
2022/04/15 08:15:17;;;;;;;;;;;;;;;;;;4669080;28;20626;-46
2022/04/15 08:17:42;;;;;;;;;;;;;;;;;;4749819;28;20855;-46
2022/04/15 08:20:07;;;;;;;;;;;;;;;;;;4758407;28;19919;-46
2022/04/15 08:22:36;;;;;;;;;;;;;;;;;;4763168;28;19924;-46
2022/04/15 08:25:01;;;;;;;;;;;;;;;;;;4773820;27;22191;-46
2022/04/15 08:27:27;;;;;;;;;;;;;;;;;;4728433;28;19927;-45
2022/04/15 08:29:52;;;;;;;;;;;;;;;;;;4792799;28;19999;-50
2022/04/15 08:32:18;;;;;;;;;;;;;;;;;;4819931;28;19920;-48
2022/04/15 08:34:43;;;;;;;;;;;;;;;;;;4851622;28;21875;-46
2022/04/15 08:37:09;;;;;;;;;;;;;;;;;;4861807;28;22774;-47
2022/04/15 08:39:34;;;;;;;;;;;;;;;;;;4858686;28;24602;-47
2022/04/15 08:42:00;;;;;;;;;;;;;;;;;;4862155;28;21877;-46
2022/04/15 08:44:25;;;;;;;;;;;;;;;;;;4872813;28;25865;-47
2022/04/15 08:46:50;;;;;;;;;;;;;;;;;;4840184;28;23189;-47
2022/04/15 08:49:19;;;;;;;;;;;;;;;;;;4833468;28;22774;-46
2022/04/15 08:51:44;;;;;;;;;;;;;;;;;;4852266;28;22468;-47
2022/04/15 08:54:09;;;;;;;;;;;;;;;;;;4839560;28;24371;-45
2022/04/15 08:56:34;;;;;;;;;;;;;;;;;;4828193;28;21319;-47
2022/04/15 08:58:59;;;;;;;;;;;;;;;;;;4820921;28;19940;-47
2022/04/15 09:01:24;;;;;;;;;;;;;;;;;;4828956;28;21119;-48
2022/04/15 09:03:50;;;;;;;;;;;;;;;;;;4856238;28;24318;-46
2022/04/15 09:06:15;;;;;;;;;;;;;;;;;;4857197;28;19920;-46
2022/04/15 09:08:40;;;;;;;;;;;;;;;;;;4839007;28;19920;-46
2022/04/15 09:11:05;;;;;;;;;;;;;;;;;;4814683;28;19920;-47
2022/04/15 09:13:34;;;;;;;;;;;;;;;;;;4827907;28;22377;-46
2022/04/15 09:15:59;;;;;;;;;;;;;;;;;;4807335;28;21837;-46
2022/04/15 09:18:24;;;;;;;;;;;;;;;;;;4787756;28;25376;-47
2022/04/15 09:20:49;;;;;;;;;;;;;;;;;;4777158;28;19926;-45
2022/04/15 09:23:15;;;;;;;;;;;;;;;;;;4444595;28;21078;-46
2022/04/15 09:25:40;;;;;;;;;;;;;;;;;;4449967;28;21542;-46
2022/04/15 09:28:05;;;;;;;;;;;;;;;;;;4640085;28;28849;-46
2022/04/15 09:30:30;;;;;;;;;;;;;;;;;;4761117;28;26454;-46
2022/04/15 09:32:55;;;;;;;;;;;;;;;;;;4833441;28;19919;-46
2022/04/15 09:35:20;;;;;;;;;;;;;;;;;;4805110;28;22755;-46
2022/04/15 09:37:46;;;;;;;;;;;;;;;;;;4818989;28;20335;-47
2022/04/15 09:40:18;;;;;;;;;;;;;;;;;;4853518;28;21015;-45
2022/04/15 09:42:43;;;;;;;;;;;;;;;;;;4838177;27;19923;-46
2022/04/15 09:45:08;;;;;;;;;;;;;;;;;;4797080;27;21775;-46
2022/04/15 09:47:33;;;;;;;;;;;;;;;;;;4873966;28;20010;-46
2022/04/15 09:49:58;;;;;;;;;;;;;;;;;;4853709;28;19920;-46
2022/04/15 09:52:23;;;;;;;;;;;;;;;;;;4862172;27;20542;-48
2022/04/15 09:54:49;;;;;;;;;;;;;;;;;;4835408;27;22130;-45
2022/04/15 09:57:14;;;;;;;;;;;;;;;;;;4768977;27;22893;-45
2022/04/15 09:59:40;;;;;;;;;;;;;;;;;;4742489;27;22892;-47
2022/04/15 10:02:06;;;;;;;;;;;;;;;;;;4699511;27;30617;-46
2022/04/15 10:04:31;;;;;;;;;;;;;;;;;;4704213;27;25134;-45
2022/04/15 10:06:56;;;;;;;;;;;;;;;;;;4650381;27;27688;-47
2022/04/15 10:09:21;;;;;;;;;;;;;;;;;;4588342;27;21011;-47
2022/04/15 10:11:46;;;;;;;;;;;;;;;;;;4534020;28;20745;-49
2022/04/15 10:14:11;;;;;;;;;;;;;;;;;;4574158;27;22692;-54
2022/04/15 10:16:36;;;;;;;;;;;;;;;;;;4678745;27;20535;-45
2022/04/15 10:19:02;;;;;;;;;;;;;;;;;;4765254;27;22433;-47
2022/04/15 10:21:27;;;;;;;;;;;;;;;;;;4767950;27;20001;-46
2022/04/15 10:23:52;;;;;;;;;;;;;;;;;;4771509;27;20770;-46
2022/04/15 10:26:17;;;;;;;;;;;;;;;;;;4741498;28;24253;-46
2022/04/15 10:28:44;;;;;;;;;;;;;;;;;;4721712;27;21166;-47
2022/04/15 10:31:11;;;;;;;;;;;;;;;;;;4772028;27;21728;-48
2022/04/15 10:33:36;;;;;;;;;;;;;;;;;;4768757;27;21207;-47
2022/04/15 10:36:01;;;;;;;;;;;;;;;;;;4739937;22;20838;-47
2022/04/15 10:38:26;;;;;;;;;;;;;;;;;;4615821;28;21245;-45
2022/04/15 10:40:51;;;;;;;;;;;;;;;;;;4633911;28;23703;-46
2022/04/15 10:43:17;;;;;;;;;;;;;;;;;;4669134;28;21890;-46
2022/04/15 10:45:42;;;;;;;;;;;;;;;;;;4740565;28;22348;-47
2022/04/15 10:48:07;;;;;;;;;;;;;;;;;;4766377;28;20922;-46
2022/04/15 10:50:32;;;;;;;;;;;;;;;;;;4713461;28;22153;-45
2022/04/15 10:52:57;;;;;;;;;;;;;;;;;;4758248;28;21932;-46
2022/04/15 10:55:43;;;;;;;;;;;;;;;;;;4780215;28;19928;-47
2022/04/15 10:58:08;;;;;;;;;;;;;;;;;;4745316;28;19973;-46
2022/04/15 11:03:17;;;;;;;;;;;;;;;;;;4643790;28;20775;-48
2022/04/15 11:05:42;;;;;;;;;;;;;;;;;;4700101;28;22846;-47
2022/04/15 11:08:07;;;;;;;;;;;;;;;;;;4727615;28;19920;-48
2022/04/15 11:10:32;;;;;;;;;;;;;;;;;;4772083;28;19975;-46
2022/04/15 11:12:59;;;;;;;;;;;;;;;;;;4795643;28;21620;-48
2022/04/15 11:15:24;;;;;;;;;;;;;;;;;;4793271;28;20658;-49
2022/04/15 11:17:52;;;;;;;;;;;;;;;;;;4805602;28;21253;-47
2022/04/15 11:20:17;;;;;;;;;;;;;;;;;;4772326;28;30154;-49
2022/04/15 11:22:45;;;;;;;;;;;;;;;;;;4786098;28;20005;-48
2022/04/15 11:25:10;;;;;;;;;;;;;;;;;;4767004;28;22613;-47
2022/04/15 11:27:35;;;;;;;;;;;;;;;;;;4730788;28;20796;-49
2022/04/15 11:30:04;;;;;;;;;;;;;;;;;;4689944;28;23826;-45
2022/04/15 11:32:30;;;;;;;;;;;;;;;;;;4627707;28;21042;-47
2022/04/15 11:34:55;;;;;;;;;;;;;;;;;;4704959;28;21148;-47
2022/04/15 11:37:20;;;;;;;;;;;;;;;;;;4773119;28;20042;-45
2022/04/15 11:39:47;;;;;;;;;;;;;;;;;;4783918;28;21985;-47
2022/04/15 11:42:12;;;;;;;;;;;;;;;;;;4826514;28;21392;-50
2022/04/15 11:44:37;;;;;;;;;;;;;;;;;;4860286;28;19927;-47
2022/04/15 11:47:24;;;;;;;;;;;;;;;;;;4857574;28;20072;-47
2022/04/15 11:49:51;;;;;;;;;;;;;;;;;;4869720;28;21175;-48
2022/04/15 11:52:16;;;;;;;;;;;;;;;;;;4865435;28;22041;-47
2022/04/15 11:54:41;;;;;;;;;;;;;;;;;;4838200;28;20670;-47
2022/04/15 11:57:06;;;;;;;;;;;;;;;;;;4863310;28;20728;-48
2022/04/15 11:59:31;;;;;;;;;;;;;;;;;;4878176;28;19942;-45
2022/04/15 12:01:57;;;;;;;;;;;;;;;;;;4863782;28;20948;-46
2022/04/15 12:04:22;;;;;;;;;;;;;;;;;;4833854;28;20057;-46
2022/04/15 12:06:47;;;;;;;;;;;;;;;;;;4798206;28;21874;-45
2022/04/15 12:09:12;;;;;;;;;;;;;;;;;;4829029;28;19962;-47
2022/04/15 12:11:38;;;;;;;;;;;;;;;;;;4846170;28;23461;-47
2022/04/15 12:14:03;;;;;;;;;;;;;;;;;;4869567;28;21391;-48
2022/04/15 12:16:28;;;;;;;;;;;;;;;;;;4843068;28;20654;-47
2022/04/15 12:18:53;;;;;;;;;;;;;;;;;;4763215;28;22172;-46
2022/04/15 12:21:19;;;;;;;;;;;;;;;;;;4703410;28;22414;-47
2022/04/15 12:23:44;;;;;;;;;;;;;;;;;;4632215;28;21197;-46
2022/04/15 12:26:09;;;;;;;;;;;;;;;;;;4747723;28;23234;-46
2022/04/15 12:31:18;;;;;;;;;;;;;;;;;;4834903;28;19927;-46
2022/04/15 12:33:44;;;;;;;;;;;;;;;;;;4802115;28;20991;-45
2022/04/15 12:36:09;;;;;;;;;;;;;;;;;;4785323;28;21288;-48
2022/04/15 12:38:35;;;;;;;;;;;;;;;;;;4813643;28;21289;-47
2022/04/15 12:41:00;;;;;;;;;;;;;;;;;;4837445;28;23429;-46
2022/04/15 12:43:25;;;;;;;;;;;;;;;;;;4840483;28;20052;-48
2022/04/15 12:45:50;;;;;;;;;;;;;;;;;;4861261;28;20038;-46
2022/04/15 12:48:15;;;;;;;;;;;;;;;;;;4820518;28;20885;-46
2022/04/15 12:50:41;;;;;;;;;;;;;;;;;;4831917;28;19916;-47
2022/04/15 12:53:07;;;;;;;;;;;;;;;;;;4853427;28;19959;-48
2022/04/15 12:55:32;;;;;;;;;;;;;;;;;;4841812;28;19920;-47
2022/04/15 12:57:57;;;;;;;;;;;;;;;;;;4868121;28;20462;-46
2022/04/15 13:00:22;;;;;;;;;;;;;;;;;;4845488;28;19957;-46
2022/04/15 13:02:47;;;;;;;;;;;;;;;;;;4817566;28;21131;-46
2022/04/15 13:05:12;;;;;;;;;;;;;;;;;;4812459;28;21918;-46
2022/04/15 13:07:37;;;;;;;;;;;;;;;;;;4836717;28;19920;-45
2022/04/15 13:10:02;;;;;;;;;;;;;;;;;;4808644;28;21948;-45
2022/04/15 13:12:28;;;;;;;;;;;;;;;;;;4824183;28;21058;-46
2022/04/15 13:14:53;;;;;;;;;;;;;;;;;;4843534;28;22939;-47
2022/04/15 13:17:18;;;;;;;;;;;;;;;;;;4924261;28;21885;-44
2022/04/15 13:19:44;;;;;;;;;;;;;;;;;;4975408;28;19920;-48
2022/04/15 13:22:09;;;;;;;;;;;;;;;;;;4976734;28;20909;-45
2022/04/15 13:24:34;;;;;;;;;;;;;;;;;;4986120;28;20070;-45
2022/04/15 13:26:59;;;;;;;;;;;;;;;;;;5018791;28;19921;-46
2022/04/15 13:29:25;;;;;;;;;;;;;;;;;;5009545;28;19920;-45
2022/04/15 13:31:50;;;;;;;;;;;;;;;;;;5025355;28;19920;-46
2022/04/15 13:34:16;;;;;;;;;;;;;;;;;;5021781;28;19927;-48
2022/04/15 13:36:42;;;;;;;;;;;;;;;;;;5045215;28;20302;-48
2022/04/15 13:39:07;;;;;;;;;;;;;;;;;;5039755;28;19945;-46
2022/04/15 13:41:33;;;;;;;;;;;;;;;;;;5046594;28;19920;-46
2022/04/15 13:43:59;;;;;;;;;;;;;;;;;;5043850;28;20189;-46
2022/04/15 13:46:26;;;;;;;;;;;;;;;;;;5025344;28;19927;-45
2022/04/15 13:48:52;;;;;;;;;;;;;;;;;;5033740;28;19921;-45
2022/04/15 13:51:17;;;;;;;;;;;;;;;;;;5035164;22;19942;-45
2022/04/15 13:56:39;;;;;;;;;;;;;;;;;;5009753;28;21211;-49
2022/04/15 13:59:05;;;;;;;;;;;;;;;;;;5033642;28;19970;-45
2022/04/15 14:01:30;;;;;;;;;;;;;;;;;;5010898;28;21672;-45
2022/04/15 14:03:55;;;;;;;;;;;;;;;;;;5019193;28;19945;-46
2022/04/15 14:06:20;;;;;;;;;;;;;;;;;;5037899;28;21145;-46
2022/04/15 14:08:45;;;;;;;;;;;;;;;;;;5068803;28;20014;-46
2022/04/15 14:11:12;;;;;;;;;;;;;;;;;;5081655;28;19916;-45
2022/04/15 14:13:37;;;;;;;;;;;;;;;;;;5080657;28;19927;-46
2022/04/15 14:16:03;;;;;;;;;;;;;;;;;;5086160;28;19911;-46
2022/04/15 14:18:28;;;;;;;;;;;;;;;;;;5098335;28;19998;-46
2022/04/15 14:20:54;;;;;;;;;;;;;;;;;;5093968;28;20002;-47
2022/04/15 14:23:19;;;;;;;;;;;;;;;;;;5095005;28;19968;-47
2022/04/15 14:25:44;;;;;;;;;;;;;;;;;;5072221;28;20103;-45
2022/04/15 14:28:09;;;;;;;;;;;;;;;;;;5071008;28;19966;-47
2022/04/15 14:30:34;;;;;;;;;;;;;;;;;;5077437;28;19946;-47
2022/04/15 14:32:59;;;;;;;;;;;;;;;;;;5060488;28;19916;-47
2022/04/15 14:35:24;;;;;;;;;;;;;;;;;;5076517;28;20009;-46
2022/04/15 14:37:50;;;;;;;;;;;;;;;;;;5079726;28;19923;-47
2022/04/15 14:40:16;;;;;;;;;;;;;;;;;;5074843;28;19908;-48
2022/04/15 14:42:41;;;;;;;;;;;;;;;;;;5080915;28;19967;-45
2022/04/15 14:45:06;;;;;;;;;;;;;;;;;;5072750;28;19920;-46
2022/04/15 14:47:31;;;;;;;;;;;;;;;;;;5076574;28;20356;-46
2022/04/15 14:49:56;;;;;;;;;;;;;;;;;;5072543;28;19966;-47
2022/04/15 14:52:21;;;;;;;;;;;;;;;;;;5055137;28;19978;-47
2022/04/15 14:54:46;;;;;;;;;;;;;;;;;;5053049;28;19931;-45
2022/04/15 14:57:13;;;;;;;;;;;;;;;;;;5058481;28;19920;-45
2022/04/15 14:59:38;;;;;;;;;;;;;;;;;;5066396;28;20455;-46
2022/04/15 15:02:03;;;;;;;;;;;;;;;;;;5082159;28;19915;-46
2022/04/15 15:04:28;;;;;;;;;;;;;;;;;;5080978;28;19966;-47
2022/04/15 15:06:54;;;;;;;;;;;;;;;;;;5089666;28;19916;-45
2022/04/15 15:09:19;;;;;;;;;;;;;;;;;;5083464;28;19912;-46
2022/04/15 15:11:44;;;;;;;;;;;;;;;;;;5085921;28;19919;-45
2022/04/15 15:14:09;;;;;;;;;;;;;;;;;;5085500;28;19923;-46
2022/04/15 15:16:34;;;;;;;;;;;;;;;;;;5090171;28;19989;-45
2022/04/15 15:18:59;;;;;;;;;;;;;;;;;;5086338;28;19921;-48
2022/04/15 15:21:24;;;;;;;;;;;;;;;;;;5085568;28;19990;-46
2022/04/15 15:32:01;;;;;;;;;;;;;;;;;;5089608;28;19934;-44
2022/04/15 15:34:28;;;;;;;;;;;;;;;;;;5083107;28;19913;-44
2022/04/15 15:36:53;;;;;;;;;;;;;;;;;;5095823;28;19912;-47
2022/04/15 15:39:18;;;;;;;;;;;;;;;;;;5093894;28;19923;-47
2022/04/15 15:41:45;;;;;;;;;;;;;;;;;;5075473;28;19917;-47
2022/04/15 15:44:10;;;;;;;;;;;;;;;;;;5082690;28;19916;-46
2022/04/15 15:46:35;;;;;;;;;;;;;;;;;;5092108;28;19946;-46
2022/04/15 15:49:00;;;;;;;;;;;;;;;;;;5082257;28;19924;-46
2022/04/15 15:51:28;;;;;;;;;;;;;;;;;;5080959;28;19943;-45
2022/04/15 15:53:53;;;;;;;;;;;;;;;;;;5091584;28;20251;-46
2022/04/15 15:56:18;;;;;;;;;;;;;;;;;;5084389;28;19980;-46
2022/04/15 15:58:43;;;;;;;;;;;;;;;;;;5062314;28;20395;-46
2022/04/15 16:01:08;;;;;;;;;;;;;;;;;;5088352;28;19946;-46
2022/04/15 16:03:33;;;;;;;;;;;;;;;;;;5079491;28;20007;-46
2022/04/15 16:05:58;;;;;;;;;;;;;;;;;;5090786;28;20370;-48
2022/04/15 16:08:23;;;;;;;;;;;;;;;;;;5088651;28;20287;-47
2022/04/15 16:10:48;;;;;;;;;;;;;;;;;;5091175;28;19923;-46
2022/04/15 16:13:14;;;;;;;;;;;;;;;;;;5084511;28;19916;-48
2022/04/15 16:15:39;;;;;;;;;;;;;;;;;;5077958;28;19913;-45
2022/04/15 16:18:04;;;;;;;;;;;;;;;;;;5075718;28;19912;-46
2022/04/15 16:20:29;;;;;;;;;;;;;;;;;;5076011;28;19992;-46
2022/04/15 16:22:55;;;;;;;;;;;;;;;;;;5075609;28;19966;-47
2022/04/15 16:25:20;;;;;;;;;;;;;;;;;;5084126;28;19912;-47
2022/04/15 16:27:46;;;;;;;;;;;;;;;;;;5096045;28;19919;-46
2022/04/15 16:30:11;;;;;;;;;;;;;;;;;;5096197;28;19908;-47
2022/04/15 16:32:36;;;;;;;;;;;;;;;;;;5097163;28;19908;-47
2022/04/15 16:35:02;;;;;;;;;;;;;;;;;;5094456;28;19912;-45
2022/04/15 16:37:27;;;;;;;;;;;;;;;;;;5093507;28;20008;-44
2022/04/15 16:39:53;;;;;;;;;;;;;;;;;;5094430;28;20031;-43
2022/04/15 16:42:18;;;;;;;;;;;;;;;;;;5094498;28;20286;-44
2022/04/15 16:44:46;;;;;;;;;;;;;;;;;;5093044;28;20390;-44
2022/04/15 16:47:11;;;;;;;;;;;;;;;;;;5084219;28;20354;-45
2022/04/15 16:49:36;;;;;;;;;;;;;;;;;;5094388;28;20027;-43
2022/04/15 16:52:01;;;;;;;;;;;;;;;;;;5097182;28;19966;-44